sensor_id;sensor_type;location;lat;lon;timestamp;P1;durP1;ratioP1;P2;durP2;ratioP2
9108;SDS011;4590;51.462;6.692;2022-12-29T00:01:15;1.53;;;0.63;;
9108;SDS011;4590;51.462;6.692;2022-12-29T00:03:41;0.73;;;0.43;;
9108;SDS011;4590;51.462;6.692;2022-12-29T00:06:06;1.07;;;0.60;;
9108;SDS011;4590;51.462;6.692;2022-12-29T00:08:31;2.00;;;0.50;;
9108;SDS011;4590;51.462;6.692;2022-12-29T00:11:09;0.90;;;0.50;;
9108;SDS011;4590;51.462;6.692;2022-12-29T00:13:36;1.00;;;0.60;;
9108;SDS011;4590;51.462;6.692;2022-12-29T00:16:19;1.10;;;0.63;;
9108;SDS011;4590;51.462;6.692;2022-12-29T00:18:45;1.40;;;0.50;;
9108;SDS011;4590;51.462;6.692;2022-12-29T00:21:14;1.43;;;0.57;;
9108;SDS011;4590;51.462;6.692;2022-12-29T00:24:00;1.08;;;0.50;;
9108;SDS011;4590;51.462;6.692;2022-12-29T00:26:44;0.73;;;0.52;;
9108;SDS011;4590;51.462;6.692;2022-12-29T00:29:30;0.90;;;0.60;;
9108;SDS011;4590;51.462;6.692;2022-12-29T00:32:31;0.90;;;0.60;;
9108;SDS011;4590;51.462;6.692;2022-12-29T00:35:22;0.90;;;0.50;;
9108;SDS011;4590;51.462;6.692;2022-12-29T00:37:57;1.08;;;0.40;;
9108;SDS011;4590;51.462;6.692;2022-12-29T00:40:45;1.25;;;0.32;;
9108;SDS011;4590;51.462;6.692;2022-12-29T00:43:29;0.88;;;0.50;;
9108;SDS011;4590;51.462;6.692;2022-12-29T00:46:13;1.13;;;0.50;;
9108;SDS011;4590;51.462;6.692;2022-12-29T00:48:38;0.70;;;0.50;;
9108;SDS011;4590;51.462;6.692;2022-12-29T00:51:22;0.88;;;0.40;;
9108;SDS011;4590;51.462;6.692;2022-12-29T00:53:48;3.63;;;1.25;;
9108;SDS011;4590;51.462;6.692;2022-12-29T00:56:13;0.47;;;0.30;;
9108;SDS011;4590;51.462;6.692;2022-12-29T00:58:39;0.60;;;0.40;;
9108;SDS011;4590;51.462;6.692;2022-12-29T01:01:05;2.10;;;0.40;;
9108;SDS011;4590;51.462;6.692;2022-12-29T01:03:33;0.70;;;0.40;;
9108;SDS011;4590;51.462;6.692;2022-12-29T01:06:02;0.68;;;0.40;;
9108;SDS011;4590;51.462;6.692;2022-12-29T01:08:29;0.65;;;0.40;;
9108;SDS011;4590;51.462;6.692;2022-12-29T01:11:02;0.52;;;0.40;;
9108;SDS011;4590;51.462;6.692;2022-12-29T01:13:32;0.63;;;0.40;;
9108;SDS011;4590;51.462;6.692;2022-12-29T01:15:58;0.68;;;0.40;;
9108;SDS011;4590;51.462;6.692;2022-12-29T01:18:24;0.50;;;0.40;;
9108;SDS011;4590;51.462;6.692;2022-12-29T01:20:50;0.45;;;0.35;;
9108;SDS011;4590;51.462;6.692;2022-12-29T01:23:16;0.55;;;0.30;;
9108;SDS011;4590;51.462;6.692;2022-12-29T01:25:41;0.60;;;0.40;;
9108;SDS011;4590;51.462;6.692;2022-12-29T01:28:06;0.60;;;0.30;;
9108;SDS011;4590;51.462;6.692;2022-12-29T01:30:33;1.00;;;0.35;;
9108;SDS011;4590;51.462;6.692;2022-12-29T01:32:59;0.63;;;0.40;;
9108;SDS011;4590;51.462;6.692;2022-12-29T01:35:25;0.40;;;0.30;;
9108;SDS011;4590;51.462;6.692;2022-12-29T01:37:50;1.37;;;0.30;;
9108;SDS011;4590;51.462;6.692;2022-12-29T01:40:15;0.80;;;0.33;;
9108;SDS011;4590;51.462;6.692;2022-12-29T01:42:41;0.80;;;0.50;;
9108;SDS011;4590;51.462;6.692;2022-12-29T01:47:37;0.90;;;0.40;;
9108;SDS011;4590;51.462;6.692;2022-12-29T01:50:10;0.40;;;0.30;;
9108;SDS011;4590;51.462;6.692;2022-12-29T01:52:42;0.93;;;0.30;;
9108;SDS011;4590;51.462;6.692;2022-12-29T01:55:14;1.13;;;0.40;;
9108;SDS011;4590;51.462;6.692;2022-12-29T01:57:40;1.80;;;0.50;;
9108;SDS011;4590;51.462;6.692;2022-12-29T02:00:09;1.77;;;0.40;;
9108;SDS011;4590;51.462;6.692;2022-12-29T02:02:37;1.98;;;0.30;;
9108;SDS011;4590;51.462;6.692;2022-12-29T02:05:04;1.38;;;0.40;;
9108;SDS011;4590;51.462;6.692;2022-12-29T02:07:35;1.33;;;0.40;;
9108;SDS011;4590;51.462;6.692;2022-12-29T02:10:02;2.05;;;0.47;;
9108;SDS011;4590;51.462;6.692;2022-12-29T02:12:28;0.50;;;0.30;;
9108;SDS011;4590;51.462;6.692;2022-12-29T02:14:55;0.60;;;0.30;;
9108;SDS011;4590;51.462;6.692;2022-12-29T02:26:08;1.70;;;0.40;;
9108;SDS011;4590;51.462;6.692;2022-12-29T02:29:00;1.40;;;0.30;;
9108;SDS011;4590;51.462;6.692;2022-12-29T02:42:51;0.82;;;0.40;;
9108;SDS011;4590;51.462;6.692;2022-12-29T02:45:31;1.90;;;0.50;;
9108;SDS011;4590;51.462;6.692;2022-12-29T02:48:10;1.02;;;0.40;;
9108;SDS011;4590;51.462;6.692;2022-12-29T02:50:43;1.67;;;0.50;;
9108;SDS011;4590;51.462;6.692;2022-12-29T02:53:16;0.77;;;0.50;;
9108;SDS011;4590;51.462;6.692;2022-12-29T02:56:03;0.73;;;0.43;;
9108;SDS011;4590;51.462;6.692;2022-12-29T02:58:29;1.53;;;0.50;;
9108;SDS011;4590;51.462;6.692;2022-12-29T03:00:56;1.20;;;0.50;;
9108;SDS011;4590;51.462;6.692;2022-12-29T03:03:48;1.08;;;0.35;;
9108;SDS011;4590;51.462;6.692;2022-12-29T03:11:49;2.03;;;0.50;;
9108;SDS011;4590;51.462;6.692;2022-12-29T03:17:47;1.20;;;0.40;;
9108;SDS011;4590;51.462;6.692;2022-12-29T03:20:21;1.17;;;0.50;;
9108;SDS011;4590;51.462;6.692;2022-12-29T03:22:51;1.42;;;0.52;;
9108;SDS011;4590;51.462;6.692;2022-12-29T03:25:54;0.90;;;0.50;;
9108;SDS011;4590;51.462;6.692;2022-12-29T03:28:22;0.80;;;0.32;;
9108;SDS011;4590;51.462;6.692;2022-12-29T03:30:50;1.20;;;0.38;;
9108;SDS011;4590;51.462;6.692;2022-12-29T03:33:17;2.97;;;0.87;;
9108;SDS011;4590;51.462;6.692;2022-12-29T03:35:46;0.70;;;0.40;;
9108;SDS011;4590;51.462;6.692;2022-12-29T03:38:15;2.60;;;0.50;;
9108;SDS011;4590;51.462;6.692;2022-12-29T03:40:45;1.33;;;0.52;;
9108;SDS011;4590;51.462;6.692;2022-12-29T03:43:14;1.15;;;0.40;;
9108;SDS011;4590;51.462;6.692;2022-12-29T03:45:40;1.38;;;0.60;;
9108;SDS011;4590;51.462;6.692;2022-12-29T03:48:06;1.35;;;0.60;;
9108;SDS011;4590;51.462;6.692;2022-12-29T03:50:31;1.30;;;0.40;;
9108;SDS011;4590;51.462;6.692;2022-12-29T03:52:56;1.23;;;0.50;;
9108;SDS011;4590;51.462;6.692;2022-12-29T03:55:22;2.00;;;0.43;;
9108;SDS011;4590;51.462;6.692;2022-12-29T03:57:47;2.23;;;0.50;;
9108;SDS011;4590;51.462;6.692;2022-12-29T04:00:12;2.67;;;0.70;;
9108;SDS011;4590;51.462;6.692;2022-12-29T04:02:38;4.03;;;1.23;;
9108;SDS011;4590;51.462;6.692;2022-12-29T04:05:03;1.67;;;0.43;;
9108;SDS011;4590;51.462;6.692;2022-12-29T04:07:29;1.17;;;0.50;;
9108;SDS011;4590;51.462;6.692;2022-12-29T04:09:54;1.70;;;0.60;;
9108;SDS011;4590;51.462;6.692;2022-12-29T04:12:20;0.70;;;0.30;;
9108;SDS011;4590;51.462;6.692;2022-12-29T04:14:45;1.30;;;0.70;;
9108;SDS011;4590;51.462;6.692;2022-12-29T04:17:10;0.93;;;0.40;;
9108;SDS011;4590;51.462;6.692;2022-12-29T04:19:35;0.97;;;0.50;;
9108;SDS011;4590;51.462;6.692;2022-12-29T04:22:01;2.13;;;0.40;;
9108;SDS011;4590;51.462;6.692;2022-12-29T04:24:26;0.80;;;0.50;;
9108;SDS011;4590;51.462;6.692;2022-12-29T04:26:51;0.70;;;0.30;;
9108;SDS011;4590;51.462;6.692;2022-12-29T04:29:16;1.90;;;0.60;;
9108;SDS011;4590;51.462;6.692;2022-12-29T04:31:42;0.60;;;0.33;;
9108;SDS011;4590;51.462;6.692;2022-12-29T04:34:07;0.50;;;0.30;;
9108;SDS011;4590;51.462;6.692;2022-12-29T04:36:32;2.90;;;0.47;;
9108;SDS011;4590;51.462;6.692;2022-12-29T04:38:58;1.37;;;0.30;;
9108;SDS011;4590;51.462;6.692;2022-12-29T04:41:23;1.47;;;0.30;;
9108;SDS011;4590;51.462;6.692;2022-12-29T04:43:48;0.83;;;0.40;;
9108;SDS011;4590;51.462;6.692;2022-12-29T04:46:14;0.67;;;0.30;;
9108;SDS011;4590;51.462;6.692;2022-12-29T04:48:39;1.07;;;0.40;;
9108;SDS011;4590;51.462;6.692;2022-12-29T04:51:04;2.03;;;0.50;;
9108;SDS011;4590;51.462;6.692;2022-12-29T04:53:30;1.17;;;0.50;;
9108;SDS011;4590;51.462;6.692;2022-12-29T04:55:55;2.83;;;0.50;;
9108;SDS011;4590;51.462;6.692;2022-12-29T04:58:21;0.87;;;0.40;;
9108;SDS011;4590;51.462;6.692;2022-12-29T05:03:12;0.85;;;0.50;;
9108;SDS011;4590;51.462;6.692;2022-12-29T05:05:37;2.17;;;0.73;;
9108;SDS011;4590;51.462;6.692;2022-12-29T05:08:03;1.83;;;0.40;;
9108;SDS011;4590;51.462;6.692;2022-12-29T05:10:28;1.50;;;0.33;;
9108;SDS011;4590;51.462;6.692;2022-12-29T05:12:53;1.10;;;0.50;;
9108;SDS011;4590;51.462;6.692;2022-12-29T05:15:19;0.63;;;0.20;;
9108;SDS011;4590;51.462;6.692;2022-12-29T05:17:44;0.60;;;0.30;;
9108;SDS011;4590;51.462;6.692;2022-12-29T05:20:09;0.73;;;0.30;;
9108;SDS011;4590;51.462;6.692;2022-12-29T05:22:35;1.27;;;0.30;;
9108;SDS011;4590;51.462;6.692;2022-12-29T05:25:01;1.55;;;0.30;;
9108;SDS011;4590;51.462;6.692;2022-12-29T05:27:27;0.40;;;0.30;;
9108;SDS011;4590;51.462;6.692;2022-12-29T05:29:52;1.17;;;0.40;;
9108;SDS011;4590;51.462;6.692;2022-12-29T05:32:18;1.00;;;0.50;;
9108;SDS011;4590;51.462;6.692;2022-12-29T05:34:43;1.63;;;0.30;;
9108;SDS011;4590;51.462;6.692;2022-12-29T05:37:08;1.53;;;0.40;;
9108;SDS011;4590;51.462;6.692;2022-12-29T05:39:33;1.90;;;0.40;;
9108;SDS011;4590;51.462;6.692;2022-12-29T05:41:58;1.27;;;0.43;;
9108;SDS011;4590;51.462;6.692;2022-12-29T05:44:24;1.17;;;0.40;;
9108;SDS011;4590;51.462;6.692;2022-12-29T05:46:49;2.87;;;0.50;;
9108;SDS011;4590;51.462;6.692;2022-12-29T05:49:15;2.73;;;0.87;;
9108;SDS011;4590;51.462;6.692;2022-12-29T05:51:40;0.70;;;0.40;;
9108;SDS011;4590;51.462;6.692;2022-12-29T05:54:06;1.60;;;0.57;;
9108;SDS011;4590;51.462;6.692;2022-12-29T05:56:31;3.27;;;0.50;;
9108;SDS011;4590;51.462;6.692;2022-12-29T05:58:56;1.57;;;0.70;;
9108;SDS011;4590;51.462;6.692;2022-12-29T06:01:21;4.67;;;0.73;;
9108;SDS011;4590;51.462;6.692;2022-12-29T06:03:47;2.00;;;0.60;;
9108;SDS011;4590;51.462;6.692;2022-12-29T06:06:12;2.23;;;0.40;;
9108;SDS011;4590;51.462;6.692;2022-12-29T06:08:37;2.47;;;0.60;;
9108;SDS011;4590;51.462;6.692;2022-12-29T06:11:02;2.30;;;0.40;;
9108;SDS011;4590;51.462;6.692;2022-12-29T06:13:28;1.03;;;0.50;;
9108;SDS011;4590;51.462;6.692;2022-12-29T06:15:53;0.73;;;0.50;;
9108;SDS011;4590;51.462;6.692;2022-12-29T06:18:18;1.53;;;0.40;;
9108;SDS011;4590;51.462;6.692;2022-12-29T06:20:44;2.63;;;0.50;;
9108;SDS011;4590;51.462;6.692;2022-12-29T06:23:09;1.77;;;0.50;;
9108;SDS011;4590;51.462;6.692;2022-12-29T06:25:36;1.10;;;0.40;;
9108;SDS011;4590;51.462;6.692;2022-12-29T06:28:03;3.13;;;0.60;;
9108;SDS011;4590;51.462;6.692;2022-12-29T06:30:30;2.53;;;0.73;;
9108;SDS011;4590;51.462;6.692;2022-12-29T06:32:55;1.20;;;0.60;;
9108;SDS011;4590;51.462;6.692;2022-12-29T06:35:20;1.73;;;0.60;;
9108;SDS011;4590;51.462;6.692;2022-12-29T06:37:47;1.88;;;0.73;;
9108;SDS011;4590;51.462;6.692;2022-12-29T06:40:13;1.83;;;0.43;;
9108;SDS011;4590;51.462;6.692;2022-12-29T06:42:38;1.67;;;0.60;;
9108;SDS011;4590;51.462;6.692;2022-12-29T06:45:03;1.53;;;0.40;;
9108;SDS011;4590;51.462;6.692;2022-12-29T06:47:29;1.83;;;0.60;;
9108;SDS011;4590;51.462;6.692;2022-12-29T06:49:54;2.40;;;0.47;;
9108;SDS011;4590;51.462;6.692;2022-12-29T06:52:20;0.90;;;0.43;;
9108;SDS011;4590;51.462;6.692;2022-12-29T06:54:45;3.30;;;0.60;;
9108;SDS011;4590;51.462;6.692;2022-12-29T06:57:10;2.07;;;0.87;;
9108;SDS011;4590;51.462;6.692;2022-12-29T06:59:35;1.43;;;0.70;;
9108;SDS011;4590;51.462;6.692;2022-12-29T07:02:01;1.57;;;0.40;;
9108;SDS011;4590;51.462;6.692;2022-12-29T07:04:27;2.22;;;0.60;;
9108;SDS011;4590;51.462;6.692;2022-12-29T07:06:52;3.28;;;0.80;;
9108;SDS011;4590;51.462;6.692;2022-12-29T07:09:18;1.23;;;0.50;;
9108;SDS011;4590;51.462;6.692;2022-12-29T07:11:43;3.37;;;0.50;;
9108;SDS011;4590;51.462;6.692;2022-12-29T07:14:09;2.60;;;0.67;;
9108;SDS011;4590;51.462;6.692;2022-12-29T07:16:36;3.17;;;1.45;;
9108;SDS011;4590;51.462;6.692;2022-12-29T07:19:01;2.00;;;0.73;;
9108;SDS011;4590;51.462;6.692;2022-12-29T07:21:27;3.70;;;0.67;;
9108;SDS011;4590;51.462;6.692;2022-12-29T07:23:53;2.00;;;0.50;;
9108;SDS011;4590;51.462;6.692;2022-12-29T07:26:19;2.92;;;0.80;;
9108;SDS011;4590;51.462;6.692;2022-12-29T07:28:44;1.80;;;0.53;;
9108;SDS011;4590;51.462;6.692;2022-12-29T07:31:20;2.25;;;0.70;;
9108;SDS011;4590;51.462;6.692;2022-12-29T07:33:47;2.25;;;0.50;;
9108;SDS011;4590;51.462;6.692;2022-12-29T07:36:12;4.25;;;0.70;;
9108;SDS011;4590;51.462;6.692;2022-12-29T07:38:39;4.28;;;0.88;;
9108;SDS011;4590;51.462;6.692;2022-12-29T07:41:04;2.95;;;0.80;;
9108;SDS011;4590;51.462;6.692;2022-12-29T07:43:30;2.53;;;0.70;;
9108;SDS011;4590;51.462;6.692;2022-12-29T07:45:55;3.20;;;0.83;;
9108;SDS011;4590;51.462;6.692;2022-12-29T07:48:20;4.83;;;0.80;;
9108;SDS011;4590;51.462;6.692;2022-12-29T07:50:46;4.63;;;1.00;;
9108;SDS011;4590;51.462;6.692;2022-12-29T07:53:11;6.13;;;1.23;;
9108;SDS011;4590;51.462;6.692;2022-12-29T07:55:36;3.17;;;0.70;;
9108;SDS011;4590;51.462;6.692;2022-12-29T07:58:01;3.20;;;0.60;;
9108;SDS011;4590;51.462;6.692;2022-12-29T08:00:27;5.10;;;1.08;;
9108;SDS011;4590;51.462;6.692;2022-12-29T08:02:52;2.70;;;0.60;;
9108;SDS011;4590;51.462;6.692;2022-12-29T08:05:18;3.15;;;0.50;;
9108;SDS011;4590;51.462;6.692;2022-12-29T08:07:44;3.23;;;0.80;;
9108;SDS011;4590;51.462;6.692;2022-12-29T08:10:10;4.63;;;0.95;;
9108;SDS011;4590;51.462;6.692;2022-12-29T08:12:37;5.32;;;1.00;;
9108;SDS011;4590;51.462;6.692;2022-12-29T08:15:03;4.70;;;1.23;;
9108;SDS011;4590;51.462;6.692;2022-12-29T08:17:29;4.45;;;0.95;;
9108;SDS011;4590;51.462;6.692;2022-12-29T08:19:54;2.33;;;0.60;;
9108;SDS011;4590;51.462;6.692;2022-12-29T08:22:19;5.20;;;1.00;;
9108;SDS011;4590;51.462;6.692;2022-12-29T08:24:45;3.57;;;1.13;;
9108;SDS011;4590;51.462;6.692;2022-12-29T08:27:10;2.53;;;0.80;;
9108;SDS011;4590;51.462;6.692;2022-12-29T08:29:35;3.67;;;0.97;;
9108;SDS011;4590;51.462;6.692;2022-12-29T08:32:01;2.47;;;0.70;;
9108;SDS011;4590;51.462;6.692;2022-12-29T08:34:26;2.77;;;0.80;;
9108;SDS011;4590;51.462;6.692;2022-12-29T08:36:51;3.07;;;0.70;;
9108;SDS011;4590;51.462;6.692;2022-12-29T08:39:16;3.70;;;1.10;;
9108;SDS011;4590;51.462;6.692;2022-12-29T08:41:42;3.03;;;0.73;;
9108;SDS011;4590;51.462;6.692;2022-12-29T08:44:07;1.60;;;0.80;;
9108;SDS011;4590;51.462;6.692;2022-12-29T08:46:33;2.25;;;0.60;;
9108;SDS011;4590;51.462;6.692;2022-12-29T08:48:58;3.17;;;0.90;;
9108;SDS011;4590;51.462;6.692;2022-12-29T08:51:23;3.70;;;0.90;;
9108;SDS011;4590;51.462;6.692;2022-12-29T08:53:48;3.00;;;0.83;;
9108;SDS011;4590;51.462;6.692;2022-12-29T08:56:14;6.57;;;1.63;;
9108;SDS011;4590;51.462;6.692;2022-12-29T08:58:39;7.00;;;1.33;;
9108;SDS011;4590;51.462;6.692;2022-12-29T09:01:05;5.22;;;1.15;;
9108;SDS011;4590;51.462;6.692;2022-12-29T09:03:31;2.88;;;0.80;;
9108;SDS011;4590;51.462;6.692;2022-12-29T09:05:56;3.57;;;0.80;;
9108;SDS011;4590;51.462;6.692;2022-12-29T09:08:21;2.93;;;0.90;;
9108;SDS011;4590;51.462;6.692;2022-12-29T09:13:13;2.27;;;0.87;;
9108;SDS011;4590;51.462;6.692;2022-12-29T09:15:40;3.70;;;0.90;;
9108;SDS011;4590;51.462;6.692;2022-12-29T09:18:06;3.63;;;1.03;;
9108;SDS011;4590;51.462;6.692;2022-12-29T09:20:33;3.78;;;0.98;;
9108;SDS011;4590;51.462;6.692;2022-12-29T09:22:59;3.83;;;1.17;;
9108;SDS011;4590;51.462;6.692;2022-12-29T09:25:24;4.35;;;1.05;;
9108;SDS011;4590;51.462;6.692;2022-12-29T09:27:50;5.07;;;0.98;;
9108;SDS011;4590;51.462;6.692;2022-12-29T09:30:18;5.65;;;1.38;;
9108;SDS011;4590;51.462;6.692;2022-12-29T09:32:45;1.60;;;0.70;;
9108;SDS011;4590;51.462;6.692;2022-12-29T09:35:10;3.92;;;0.77;;
9108;SDS011;4590;51.462;6.692;2022-12-29T09:37:36;3.92;;;0.90;;
9108;SDS011;4590;51.462;6.692;2022-12-29T09:40:02;4.40;;;0.90;;
9108;SDS011;4590;51.462;6.692;2022-12-29T09:42:31;3.38;;;0.93;;
9108;SDS011;4590;51.462;6.692;2022-12-29T09:47:43;5.88;;;2.10;;
9108;SDS011;4590;51.462;6.692;2022-12-29T09:50:29;4.05;;;0.90;;
9108;SDS011;4590;51.462;6.692;2022-12-29T09:53:13;4.75;;;0.98;;
9108;SDS011;4590;51.462;6.692;2022-12-29T09:55:50;3.72;;;1.05;;
9108;SDS011;4590;51.462;6.692;2022-12-29T09:58:26;6.05;;;1.10;;
9108;SDS011;4590;51.462;6.692;2022-12-29T10:00:56;5.53;;;1.13;;
9108;SDS011;4590;51.462;6.692;2022-12-29T10:03:27;2.88;;;0.70;;
9108;SDS011;4590;51.462;6.692;2022-12-29T10:06:10;2.90;;;0.93;;
9108;SDS011;4590;51.462;6.692;2022-12-29T10:12:03;4.13;;;0.98;;
9108;SDS011;4590;51.462;6.692;2022-12-29T10:23:01;6.32;;;1.00;;
9108;SDS011;4590;51.462;6.692;2022-12-29T10:25:38;3.22;;;1.02;;
9108;SDS011;4590;51.462;6.692;2022-12-29T10:28:09;4.65;;;1.17;;
9108;SDS011;4590;51.462;6.692;2022-12-29T10:31:06;3.13;;;1.08;;
9108;SDS011;4590;51.462;6.692;2022-12-29T10:36:12;4.97;;;0.95;;
9108;SDS011;4590;51.462;6.692;2022-12-29T10:38:46;7.53;;;1.45;;
9108;SDS011;4590;51.462;6.692;2022-12-29T10:41:27;3.17;;;0.90;;
9108;SDS011;4590;51.462;6.692;2022-12-29T10:43:59;5.40;;;1.23;;
9108;SDS011;4590;51.462;6.692;2022-12-29T10:48:56;3.38;;;0.75;;
9108;SDS011;4590;51.462;6.692;2022-12-29T10:51:22;6.87;;;1.67;;
9108;SDS011;4590;51.462;6.692;2022-12-29T10:53:51;5.53;;;1.60;;
9108;SDS011;4590;51.462;6.692;2022-12-29T11:01:50;5.03;;;1.10;;
9108;SDS011;4590;51.462;6.692;2022-12-29T11:07:02;3.65;;;1.20;;
9108;SDS011;4590;51.462;6.692;2022-12-29T11:09:28;3.97;;;1.25;;
9108;SDS011;4590;51.462;6.692;2022-12-29T11:11:56;3.75;;;1.05;;
9108;SDS011;4590;51.462;6.692;2022-12-29T11:14:26;4.03;;;1.10;;
9108;SDS011;4590;51.462;6.692;2022-12-29T11:17:00;5.28;;;0.80;;
9108;SDS011;4590;51.462;6.692;2022-12-29T11:19:31;4.97;;;1.20;;
9108;SDS011;4590;51.462;6.692;2022-12-29T11:24:53;4.05;;;1.10;;
9108;SDS011;4590;51.462;6.692;2022-12-29T11:27:29;4.97;;;1.77;;
9108;SDS011;4590;51.462;6.692;2022-12-29T11:29:54;4.60;;;1.13;;
9108;SDS011;4590;51.462;6.692;2022-12-29T11:32:23;5.77;;;1.13;;
9108;SDS011;4590;51.462;6.692;2022-12-29T11:34:50;4.95;;;0.88;;
9108;SDS011;4590;51.462;6.692;2022-12-29T11:37:17;5.32;;;0.90;;
9108;SDS011;4590;51.462;6.692;2022-12-29T11:39:51;5.10;;;1.00;;
9108;SDS011;4590;51.462;6.692;2022-12-29T11:42:35;4.55;;;1.10;;
9108;SDS011;4590;51.462;6.692;2022-12-29T11:45:05;7.18;;;1.20;;
9108;SDS011;4590;51.462;6.692;2022-12-29T11:47:38;3.63;;;0.90;;
9108;SDS011;4590;51.462;6.692;2022-12-29T11:50:04;5.97;;;1.07;;
9108;SDS011;4590;51.462;6.692;2022-12-29T11:52:34;6.07;;;1.02;;
9108;SDS011;4590;51.462;6.692;2022-12-29T11:55:03;6.10;;;0.80;;
9108;SDS011;4590;51.462;6.692;2022-12-29T11:57:32;8.40;;;4.07;;
9108;SDS011;4590;51.462;6.692;2022-12-29T11:59:59;10.38;;;5.30;;
9108;SDS011;4590;51.462;6.692;2022-12-29T12:02:36;9.38;;;7.50;;
9108;SDS011;4590;51.462;6.692;2022-12-29T12:11:17;4.95;;;0.90;;
9108;SDS011;4590;51.462;6.692;2022-12-29T12:16:43;5.32;;;1.15;;
9108;SDS011;4590;51.462;6.692;2022-12-29T12:19:17;5.18;;;1.30;;
9108;SDS011;4590;51.462;6.692;2022-12-29T12:22:31;4.43;;;1.10;;
9108;SDS011;4590;51.462;6.692;2022-12-29T12:24:53;5.32;;;1.05;;
9108;SDS011;4590;51.462;6.692;2022-12-29T12:27:24;3.20;;;0.80;;
9108;SDS011;4590;51.462;6.692;2022-12-29T12:46:24;4.53;;;1.20;;
9108;SDS011;4590;51.462;6.692;2022-12-29T12:49:25;3.80;;;0.82;;
9108;SDS011;4590;51.462;6.692;2022-12-29T12:52:01;4.15;;;1.45;;
9108;SDS011;4590;51.462;6.692;2022-12-29T12:54:35;5.72;;;1.20;;
9108;SDS011;4590;51.462;6.692;2022-12-29T12:57:42;5.10;;;1.05;;
9108;SDS011;4590;51.462;6.692;2022-12-29T13:00:17;5.05;;;1.50;;
9108;SDS011;4590;51.462;6.692;2022-12-29T13:02:59;5.68;;;1.73;;
9108;SDS011;4590;51.462;6.692;2022-12-29T13:05:42;4.28;;;1.33;;
9108;SDS011;4590;51.462;6.692;2022-12-29T13:10:54;4.38;;;1.23;;
9108;SDS011;4590;51.462;6.692;2022-12-29T13:15:57;4.40;;;0.80;;
9108;SDS011;4590;51.462;6.692;2022-12-29T13:18:33;4.47;;;1.15;;
9108;SDS011;4590;51.462;6.692;2022-12-29T13:21:34;3.90;;;1.08;;
9108;SDS011;4590;51.462;6.692;2022-12-29T13:24:16;4.03;;;0.98;;
9108;SDS011;4590;51.462;6.692;2022-12-29T13:26:49;4.80;;;1.13;;
9108;SDS011;4590;51.462;6.692;2022-12-29T13:37:19;5.28;;;0.90;;
9108;SDS011;4590;51.462;6.692;2022-12-29T13:40:00;5.22;;;1.52;;
9108;SDS011;4590;51.462;6.692;2022-12-29T13:42:28;3.25;;;0.73;;
9108;SDS011;4590;51.462;6.692;2022-12-29T13:44:58;8.23;;;1.77;;
9108;SDS011;4590;51.462;6.692;2022-12-29T13:47:31;6.63;;;1.58;;
9108;SDS011;4590;51.462;6.692;2022-12-29T13:50:01;4.88;;;0.90;;
9108;SDS011;4590;51.462;6.692;2022-12-29T14:03:49;3.35;;;0.93;;
9108;SDS011;4590;51.462;6.692;2022-12-29T14:06:19;3.90;;;1.20;;
9108;SDS011;4590;51.462;6.692;2022-12-29T14:08:48;5.22;;;0.90;;
9108;SDS011;4590;51.462;6.692;2022-12-29T14:11:20;3.50;;;1.55;;
9108;SDS011;4590;51.462;6.692;2022-12-29T14:13:47;4.00;;;1.13;;
9108;SDS011;4590;51.462;6.692;2022-12-29T14:16:29;8.65;;;2.97;;
9108;SDS011;4590;51.462;6.692;2022-12-29T14:19:11;6.35;;;2.63;;
9108;SDS011;4590;51.462;6.692;2022-12-29T14:21:40;4.38;;;1.60;;
9108;SDS011;4590;51.462;6.692;2022-12-29T14:32:49;5.20;;;1.23;;
9108;SDS011;4590;51.462;6.692;2022-12-29T14:34:49;3.60;;;1.40;;
9108;SDS011;4590;51.462;6.692;2022-12-29T14:39:49;5.25;;;1.55;;
9108;SDS011;4590;51.462;6.692;2022-12-29T14:42:15;2.43;;;0.90;;
9108;SDS011;4590;51.462;6.692;2022-12-29T14:44:55;3.25;;;0.82;;
9108;SDS011;4590;51.462;6.692;2022-12-29T14:49:55;3.03;;;0.80;;
9108;SDS011;4590;51.462;6.692;2022-12-29T14:52:27;3.15;;;0.80;;
9108;SDS011;4590;51.462;6.692;2022-12-29T14:54:56;3.80;;;0.93;;
9108;SDS011;4590;51.462;6.692;2022-12-29T14:57:35;5.28;;;1.00;;
9108;SDS011;4590;51.462;6.692;2022-12-29T15:02:44;2.65;;;0.80;;
9108;SDS011;4590;51.462;6.692;2022-12-29T15:05:27;5.60;;;1.20;;
9108;SDS011;4590;51.462;6.692;2022-12-29T15:07:56;4.25;;;1.00;;
9108;SDS011;4590;51.462;6.692;2022-12-29T15:10:24;5.07;;;1.10;;
9108;SDS011;4590;51.462;6.692;2022-12-29T15:13:00;4.57;;;1.20;;
9108;SDS011;4590;51.462;6.692;2022-12-29T15:15:35;3.30;;;0.90;;
9108;SDS011;4590;51.462;6.692;2022-12-29T15:20:51;5.40;;;1.00;;
9108;SDS011;4590;51.462;6.692;2022-12-29T15:23:20;4.82;;;0.80;;
9108;SDS011;4590;51.462;6.692;2022-12-29T15:25:59;5.20;;;1.00;;
9108;SDS011;4590;51.462;6.692;2022-12-29T15:28:26;3.50;;;1.10;;
9108;SDS011;4590;51.462;6.692;2022-12-29T15:31:04;2.42;;;0.88;;
9108;SDS011;4590;51.462;6.692;2022-12-29T15:33:37;5.03;;;1.17;;
9108;SDS011;4590;51.462;6.692;2022-12-29T15:36:08;5.95;;;1.40;;
9108;SDS011;4590;51.462;6.692;2022-12-29T15:38:36;5.47;;;1.35;;
9108;SDS011;4590;51.462;6.692;2022-12-29T15:41:06;6.23;;;2.07;;
9108;SDS011;4590;51.462;6.692;2022-12-29T15:43:46;4.45;;;1.20;;
9108;SDS011;4590;51.462;6.692;2022-12-29T15:46:34;3.63;;;1.08;;
9108;SDS011;4590;51.462;6.692;2022-12-29T15:48:59;5.90;;;1.13;;
9108;SDS011;4590;51.462;6.692;2022-12-29T15:51:30;4.28;;;1.25;;
9108;SDS011;4590;51.462;6.692;2022-12-29T15:53:59;2.45;;;0.98;;
9108;SDS011;4590;51.462;6.692;2022-12-29T15:56:28;8.40;;;1.77;;
9108;SDS011;4590;51.462;6.692;2022-12-29T15:58:54;4.97;;;0.90;;
9108;SDS011;4590;51.462;6.692;2022-12-29T16:01:23;4.70;;;1.03;;
9108;SDS011;4590;51.462;6.692;2022-12-29T16:03:54;3.70;;;1.25;;
9108;SDS011;4590;51.462;6.692;2022-12-29T16:08:58;6.53;;;1.73;;
9108;SDS011;4590;51.462;6.692;2022-12-29T16:11:38;3.85;;;1.17;;
9108;SDS011;4590;51.462;6.692;2022-12-29T16:14:15;4.60;;;1.20;;
9108;SDS011;4590;51.462;6.692;2022-12-29T16:16:43;3.95;;;1.10;;
9108;SDS011;4590;51.462;6.692;2022-12-29T16:22:26;5.43;;;1.90;;
9108;SDS011;4590;51.462;6.692;2022-12-29T16:24:56;8.52;;;3.50;;
9108;SDS011;4590;51.462;6.692;2022-12-29T16:27:36;11.23;;;4.60;;
9108;SDS011;4590;51.462;6.692;2022-12-29T16:30:06;6.57;;;2.17;;
9108;SDS011;4590;51.462;6.692;2022-12-29T16:32:53;7.43;;;2.83;;
9108;SDS011;4590;51.462;6.692;2022-12-29T16:37:46;13.10;;;5.73;;
9108;SDS011;4590;51.462;6.692;2022-12-29T16:40:33;11.27;;;5.50;;
9108;SDS011;4590;51.462;6.692;2022-12-29T16:43:01;15.30;;;6.07;;
9108;SDS011;4590;51.462;6.692;2022-12-29T16:51:28;8.10;;;1.70;;
9108;SDS011;4590;51.462;6.692;2022-12-29T16:53:55;4.63;;;2.45;;
9108;SDS011;4590;51.462;6.692;2022-12-29T16:56:23;4.75;;;2.33;;
9108;SDS011;4590;51.462;6.692;2022-12-29T16:58:53;4.70;;;2.50;;
9108;SDS011;4590;51.462;6.692;2022-12-29T17:01:34;3.75;;;1.88;;
9108;SDS011;4590;51.462;6.692;2022-12-29T17:04:04;5.30;;;1.90;;
9108;SDS011;4590;51.462;6.692;2022-12-29T17:06:31;2.45;;;0.90;;
9108;SDS011;4590;51.462;6.692;2022-12-29T17:08:57;3.90;;;1.77;;
9108;SDS011;4590;51.462;6.692;2022-12-29T17:11:32;3.30;;;1.50;;
9108;SDS011;4590;51.462;6.692;2022-12-29T17:14:18;3.72;;;2.10;;
9108;SDS011;4590;51.462;6.692;2022-12-29T17:16:49;4.55;;;2.38;;
9108;SDS011;4590;51.462;6.692;2022-12-29T17:19:18;4.07;;;2.38;;
9108;SDS011;4590;51.462;6.692;2022-12-29T17:21:45;27.55;;;13.20;;
9108;SDS011;4590;51.462;6.692;2022-12-29T17:24:15;9.50;;;3.90;;
9108;SDS011;4590;51.462;6.692;2022-12-29T17:26:42;10.18;;;6.32;;
9108;SDS011;4590;51.462;6.692;2022-12-29T17:29:10;12.35;;;5.93;;
9108;SDS011;4590;51.462;6.692;2022-12-29T17:31:44;3.83;;;1.98;;
9108;SDS011;4590;51.462;6.692;2022-12-29T17:34:10;3.13;;;1.53;;
9108;SDS011;4590;51.462;6.692;2022-12-29T17:36:37;3.08;;;1.13;;
9108;SDS011;4590;51.462;6.692;2022-12-29T17:39:04;1.97;;;1.03;;
9108;SDS011;4590;51.462;6.692;2022-12-29T17:41:30;3.13;;;1.08;;
9108;SDS011;4590;51.462;6.692;2022-12-29T17:43:57;6.18;;;2.75;;
9108;SDS011;4590;51.462;6.692;2022-12-29T17:46:24;4.47;;;1.90;;
9108;SDS011;4590;51.462;6.692;2022-12-29T17:48:49;3.30;;;2.33;;
9108;SDS011;4590;51.462;6.692;2022-12-29T17:51:14;6.03;;;4.90;;
9108;SDS011;4590;51.462;6.692;2022-12-29T17:53:40;7.90;;;4.70;;
9108;SDS011;4590;51.462;6.692;2022-12-29T17:56:05;5.60;;;4.00;;
9108;SDS011;4590;51.462;6.692;2022-12-29T17:58:31;3.95;;;2.75;;
9108;SDS011;4590;51.462;6.692;2022-12-29T18:00:58;3.40;;;2.20;;